createdAt,value
2019-02-20T00:00:22.916Z,12.90
2019-02-20T00:02:51.388Z,13.73
2019-02-20T00:05:19.808Z,17.83
2019-02-20T00:07:48.253Z,12.57
2019-02-20T00:10:16.668Z,12.63
2019-02-20T00:12:45.112Z,12.30
2019-02-20T00:15:13.536Z,15.33
2019-02-20T00:17:41.969Z,11.00
2019-02-20T00:20:10.500Z,14.03
2019-02-20T00:22:40.510Z,11.57
2019-02-20T00:25:09.163Z,12.70
2019-02-20T00:27:37.593Z,14.73
2019-02-20T00:30:08.897Z,13.80
2019-02-20T00:32:37.350Z,12.60
2019-02-20T00:35:06.616Z,14.87
2019-02-20T00:37:35.060Z,11.87
2019-02-20T00:40:04.736Z,12.57
2019-02-20T00:42:33.199Z,13.77
2019-02-20T00:45:03.260Z,12.93
2019-02-20T00:47:49.719Z,12.63
2019-02-20T00:50:19.417Z,11.17
2019-02-20T00:52:50.285Z,12.47
2019-02-20T00:55:38.370Z,12.60
2019-02-20T00:58:06.844Z,15.57
2019-02-20T01:00:35.256Z,13.70
2019-02-20T01:03:03.977Z,12.97
2019-02-20T01:05:32.385Z,12.87
2019-02-20T01:08:00.845Z,11.40
2019-02-20T01:10:29.261Z,15.17
2019-02-20T01:12:57.692Z,15.47
2019-02-20T01:15:26.177Z,13.63
2019-02-20T01:17:54.636Z,13.67
2019-02-20T01:20:23.061Z,14.23
2019-02-20T01:22:59.694Z,12.73
2019-02-20T01:25:21.635Z,13.97
2019-02-20T01:27:50.045Z,12.50
2019-02-20T01:30:18.505Z,13.43
2019-02-20T01:32:46.925Z,11.00
2019-02-20T01:35:15.372Z,13.10
2019-02-20T01:37:43.800Z,10.67
2019-02-20T01:40:12.225Z,10.67
2019-02-20T01:42:40.708Z,13.70
2019-02-20T01:45:09.130Z,9.83
2019-02-20T01:47:37.560Z,14.10
2019-02-20T01:50:07.229Z,9.40
2019-02-20T01:52:35.643Z,11.43
2019-02-20T01:55:06.047Z,12.13
2019-02-20T01:57:34.488Z,12.20
2019-02-20T02:00:03.311Z,10.07
2019-02-20T02:02:31.737Z,12.60
2019-02-20T02:05:00.388Z,12.67
2019-02-20T02:07:28.811Z,16.97
2019-02-20T02:09:57.259Z,14.17
2019-02-20T02:12:25.680Z,15.07
2019-02-20T02:14:54.122Z,13.43
2019-02-20T02:17:22.535Z,11.13
2019-02-20T02:19:50.977Z,10.20
2019-02-20T02:22:19.387Z,12.80
2019-02-20T02:24:47.842Z,12.83
2019-02-20T02:27:16.243Z,12.93
2019-02-20T02:29:44.676Z,13.27
2019-02-20T02:32:13.106Z,13.33
2019-02-20T02:34:41.623Z,12.77
2019-02-20T02:37:10.045Z,15.17
2019-02-20T02:39:38.557Z,13.43
2019-02-20T02:42:06.976Z,12.00
2019-02-20T02:44:35.424Z,12.57
2019-02-20T02:47:03.832Z,10.67
2019-02-20T02:49:32.319Z,15.80
2019-02-20T02:52:00.761Z,13.40
2019-02-20T02:54:29.218Z,10.33
2019-02-20T02:56:57.613Z,14.13
2019-02-20T02:59:26.039Z,10.73
2019-02-20T03:01:54.476Z,13.93
2019-02-20T03:04:22.651Z,11.67
2019-02-20T03:06:50.741Z,12.70
2019-02-20T03:09:18.832Z,12.47
2019-02-20T03:11:46.916Z,12.63
2019-02-20T03:14:15.004Z,12.93
2019-02-20T03:16:43.125Z,11.97
2019-02-20T03:19:11.255Z,11.40
2019-02-20T03:21:39.336Z,14.53
2019-02-20T03:24:07.445Z,14.40
2019-02-20T03:26:35.531Z,13.97
2019-02-20T03:29:03.704Z,12.87
2019-02-20T03:31:31.800Z,10.77
2019-02-20T03:33:59.908Z,11.93
2019-02-20T03:36:28.003Z,15.30
2019-02-20T03:38:56.086Z,13.73
2019-02-20T03:41:24.208Z,15.43
2019-02-20T03:43:52.275Z,16.07
2019-02-20T03:46:20.407Z,12.00
2019-02-20T03:48:48.485Z,13.33
2019-02-20T03:51:16.571Z,13.73
2019-02-20T03:53:51.664Z,12.60
2019-02-20T03:56:14.518Z,15.60
2019-02-20T03:58:42.587Z,12.70
2019-02-20T04:01:10.671Z,13.17
2019-02-20T04:03:38.817Z,14.77
2019-02-20T04:06:06.963Z,13.90
2019-02-20T04:08:35.062Z,13.70
2019-02-20T04:11:03.174Z,14.03
2019-02-20T04:13:31.383Z,12.47
2019-02-20T04:15:59.440Z,12.13
2019-02-20T04:18:27.532Z,10.43
2019-02-20T04:20:55.648Z,12.70
2019-02-20T04:23:23.770Z,12.17
2019-02-20T04:25:51.873Z,11.50
2019-02-20T04:28:19.957Z,16.43
2019-02-20T04:30:48.048Z,12.40
2019-02-20T04:33:16.160Z,14.97
2019-02-20T04:35:44.270Z,13.30
2019-02-20T04:38:12.435Z,12.87
2019-02-20T04:40:40.513Z,17.13
2019-02-20T04:43:08.604Z,13.77
2019-02-20T04:45:36.719Z,14.30
2019-02-20T04:48:04.833Z,13.83
2019-02-20T04:50:32.919Z,12.60
2019-02-20T04:53:00.974Z,14.37
2019-02-20T04:55:29.081Z,19.47
2019-02-20T04:58:04.441Z,12.90
2019-02-20T05:00:32.656Z,11.77
2019-02-20T05:03:00.736Z,13.87
2019-02-20T05:05:28.911Z,12.57
2019-02-20T05:07:57.003Z,14.10
2019-02-20T05:10:25.097Z,12.43
2019-02-20T05:12:53.239Z,12.93
2019-02-20T05:15:21.332Z,15.73
2019-02-20T05:17:49.420Z,14.30
2019-02-20T05:20:17.509Z,11.23
2019-02-20T05:22:45.597Z,12.37
2019-02-20T05:25:13.700Z,13.43
2019-02-20T05:27:41.783Z,11.83
2019-02-20T05:30:09.949Z,13.80
2019-02-20T05:32:38.040Z,14.63
2019-02-20T05:35:06.196Z,13.33
2019-02-20T05:37:34.344Z,12.27
2019-02-20T05:40:02.701Z,15.17
2019-02-20T05:42:30.797Z,11.40
2019-02-20T05:44:58.900Z,11.80
2019-02-20T05:47:26.976Z,14.03
2019-02-20T05:49:55.068Z,14.00
2019-02-20T05:52:23.139Z,13.23
2019-02-20T05:54:51.276Z,15.73
2019-02-20T05:57:19.352Z,13.27
2019-02-20T05:59:47.436Z,12.33
2019-02-20T06:02:15.547Z,14.23
2019-02-20T06:04:43.648Z,15.50
2019-02-20T06:07:11.798Z,11.40
2019-02-20T06:09:39.913Z,12.23
2019-02-20T06:12:08.107Z,18.20
2019-02-20T06:14:36.192Z,11.23
2019-02-20T06:17:04.292Z,16.10
2019-02-20T06:19:32.385Z,14.87
2019-02-20T06:22:00.463Z,14.57
2019-02-20T06:24:43.624Z,18.30
2019-02-20T06:27:04.037Z,15.53
2019-02-20T06:29:32.131Z,15.70
2019-02-20T06:32:00.210Z,14.87
2019-02-20T06:34:28.304Z,20.93
2019-02-20T06:36:56.458Z,15.80
2019-02-20T06:39:25.068Z,21.40
2019-02-20T06:41:53.186Z,14.70
2019-02-20T06:44:21.553Z,17.23
2019-02-20T06:46:50.107Z,15.13
2019-02-20T06:49:19.303Z,19.03
2019-02-20T06:51:47.516Z,14.60
2019-02-20T06:54:15.792Z,14.47
2019-02-20T06:56:44.641Z,18.57
2019-02-20T06:59:12.808Z,16.10
2019-02-20T07:01:40.888Z,19.00
2019-02-20T07:04:10.574Z,39.97
2019-02-20T07:06:46.433Z,46.00
2019-02-20T07:09:25.315Z,18.27
2019-02-20T07:11:58.143Z,18.57
2019-02-20T07:14:27.783Z,16.27
2019-02-20T07:17:13.859Z,16.67
2019-02-20T07:19:52.613Z,30.10
2019-02-20T07:22:37.409Z,17.20
2019-02-20T07:25:16.150Z,14.60
2019-02-20T07:28:02.511Z,13.57
2019-02-20T07:30:30.634Z,14.83
2019-02-20T07:32:58.707Z,17.03
2019-02-20T07:35:26.895Z,17.53
2019-02-20T07:37:55.013Z,18.20
2019-02-20T07:40:23.192Z,16.40
2019-02-20T07:42:51.326Z,15.17
2019-02-20T07:45:19.494Z,19.30
2019-02-20T07:47:47.614Z,17.03
2019-02-20T07:50:15.738Z,16.07
2019-02-20T07:52:43.882Z,15.93
2019-02-20T07:55:13.601Z,16.27
2019-02-20T07:57:41.845Z,18.77
2019-02-20T08:00:11.262Z,14.67
2019-02-20T08:02:39.351Z,17.43
2019-02-20T08:05:07.543Z,18.27
2019-02-20T08:07:35.650Z,18.50
2019-02-20T08:10:04.990Z,21.30
2019-02-20T08:12:33.061Z,16.13
2019-02-20T08:15:01.151Z,21.43
2019-02-20T08:17:29.239Z,19.90
2019-02-20T08:19:57.347Z,19.57
2019-02-20T08:22:25.437Z,18.90
2019-02-20T08:24:53.539Z,20.73
2019-02-20T08:27:21.610Z,20.33
2019-02-20T08:29:49.693Z,18.87
2019-02-20T08:32:17.765Z,18.37
2019-02-20T08:34:45.866Z,21.87
2019-02-20T08:37:13.952Z,21.83
2019-02-20T08:39:42.123Z,21.43
2019-02-20T08:42:10.220Z,19.10
2019-02-20T08:44:38.311Z,17.40
2019-02-20T08:47:06.436Z,17.70
2019-02-20T08:49:34.542Z,18.97
2019-02-20T08:52:02.607Z,21.60
2019-02-20T08:54:30.708Z,16.97
2019-02-20T08:56:58.787Z,19.33
2019-02-20T08:59:26.893Z,17.83
2019-02-20T09:01:54.990Z,16.40
2019-02-20T09:04:23.076Z,16.07
2019-02-20T09:06:51.151Z,17.43
2019-02-20T09:09:19.231Z,20.13
2019-02-20T09:11:47.337Z,18.77
2019-02-20T09:14:15.419Z,17.43
2019-02-20T09:16:43.533Z,18.90
2019-02-20T09:19:11.595Z,17.60
2019-02-20T09:21:39.725Z,18.37
2019-02-20T09:24:07.857Z,19.77
2019-02-20T09:26:35.939Z,18.57
2019-02-20T09:29:04.177Z,16.43
2019-02-20T09:31:32.298Z,16.40
2019-02-20T09:34:02.971Z,14.70
2019-02-20T09:36:31.063Z,20.03
2019-02-20T09:39:00.671Z,15.93
2019-02-20T09:41:28.860Z,17.17
2019-02-20T09:43:57.011Z,17.80
2019-02-20T09:46:25.123Z,13.63
2019-02-20T09:48:53.198Z,15.40
2019-02-20T09:51:21.360Z,15.50
2019-02-20T09:53:49.440Z,18.03
2019-02-20T09:56:17.571Z,15.23
2019-02-20T09:58:45.681Z,16.23
2019-02-20T10:01:13.796Z,13.87
2019-02-20T10:03:41.885Z,14.13
2019-02-20T10:06:09.991Z,14.40
2019-02-20T10:08:38.069Z,14.50
2019-02-20T10:11:06.160Z,13.40
2019-02-20T10:13:34.262Z,14.53
2019-02-20T10:16:02.378Z,12.47
2019-02-20T10:18:30.451Z,12.50
2019-02-20T10:20:58.564Z,11.53
2019-02-20T10:23:26.644Z,13.47
2019-02-20T10:26:00.928Z,11.03
2019-02-20T10:28:24.528Z,11.57
2019-02-20T10:30:52.635Z,12.63
2019-02-20T10:33:20.715Z,12.10
2019-02-20T10:35:48.800Z,12.83
2019-02-20T10:38:16.885Z,10.43
2019-02-20T10:40:44.973Z,12.73
2019-02-20T10:43:13.045Z,11.23
2019-02-20T10:45:41.176Z,12.37
2019-02-20T10:48:09.240Z,13.47
2019-02-20T10:50:37.327Z,11.20
2019-02-20T10:53:05.399Z,14.40
2019-02-20T10:55:33.486Z,9.93
2019-02-20T10:58:01.560Z,11.47
2019-02-20T11:00:29.648Z,10.83
2019-02-20T11:02:57.719Z,10.90
2019-02-20T11:05:25.847Z,12.57
2019-02-20T11:07:53.935Z,12.07
2019-02-20T11:10:24.020Z,10.07
2019-02-20T11:12:51.901Z,11.77
2019-02-20T11:15:19.992Z,13.17
2019-02-20T11:17:48.069Z,10.30
2019-02-20T11:20:16.161Z,11.47
2019-02-20T11:22:44.292Z,9.97
2019-02-20T11:25:12.828Z,11.87
2019-02-20T11:27:40.912Z,11.43
2019-02-20T11:30:10.684Z,9.97
2019-02-20T11:32:38.791Z,11.13
2019-02-20T11:35:07.661Z,12.07
2019-02-20T11:37:35.855Z,8.70
2019-02-20T11:40:04.837Z,9.17
2019-02-20T11:42:32.976Z,8.83
2019-02-20T11:45:01.052Z,9.70
2019-02-20T11:47:29.132Z,10.27
2019-02-20T11:49:57.238Z,11.37
2019-02-20T11:52:25.331Z,9.20
2019-02-20T11:54:53.518Z,7.20
2019-02-20T11:57:21.714Z,7.93
2019-02-20T11:59:49.784Z,7.37
2019-02-20T12:02:17.868Z,9.33
2019-02-20T12:04:45.949Z,7.53
2019-02-20T12:07:14.046Z,8.93
2019-02-20T12:09:42.137Z,8.43
2019-02-20T12:12:10.308Z,8.70
2019-02-20T12:14:38.406Z,8.93
2019-02-20T12:17:06.491Z,8.53
2019-02-20T12:19:34.584Z,8.53
2019-02-20T12:22:02.685Z,8.33
2019-02-20T12:24:30.840Z,7.93
2019-02-20T12:26:58.943Z,8.10
2019-02-20T12:29:27.029Z,6.40
2019-02-20T12:31:55.120Z,6.57
2019-02-20T12:34:23.218Z,6.33
2019-02-20T12:36:51.368Z,6.20
2019-02-20T12:39:19.476Z,5.20
2019-02-20T12:41:47.562Z,7.17
2019-02-20T12:44:15.634Z,3.47
2019-02-20T12:46:43.736Z,5.63
2019-02-20T12:49:11.863Z,8.67
2019-02-20T12:51:39.985Z,7.37
2019-02-20T12:54:08.043Z,9.77
2019-02-20T12:56:43.625Z,6.93
2019-02-20T12:59:07.992Z,5.40
2019-02-20T13:01:35.872Z,5.67
2019-02-20T13:04:04.006Z,6.77
2019-02-20T13:06:32.079Z,6.27
2019-02-20T13:09:00.244Z,10.47
2019-02-20T13:11:28.340Z,6.73
2019-02-20T13:13:56.419Z,7.17
2019-02-20T13:16:24.590Z,7.23
2019-02-20T13:21:49.045Z,3.90
2019-02-20T13:24:17.136Z,5.07
2019-02-20T13:26:52.824Z,6.40
2019-02-20T13:29:15.063Z,6.20
2019-02-20T13:31:43.178Z,5.37
2019-02-20T13:34:11.269Z,6.13
2019-02-20T13:36:39.460Z,4.60
2019-02-20T13:39:07.612Z,7.90
2019-02-20T13:41:35.787Z,6.30
2019-02-20T13:44:03.965Z,11.80
2019-02-20T13:46:32.144Z,7.10
2019-02-20T13:49:00.325Z,5.97
2019-02-20T13:51:28.940Z,5.47
2019-02-20T13:53:57.082Z,4.87
2019-02-20T13:56:25.285Z,6.70
2019-02-20T13:58:53.392Z,8.93
2019-02-20T14:01:21.535Z,7.13
2019-02-20T14:03:49.725Z,8.27
2019-02-20T14:06:17.876Z,6.87
2019-02-20T14:08:46.254Z,5.80
2019-02-20T14:11:14.383Z,6.97
2019-02-20T14:13:42.487Z,7.27
2019-02-20T14:16:10.696Z,8.77
2019-02-20T14:18:38.792Z,6.43
2019-02-20T14:21:06.908Z,6.77
2019-02-20T14:23:35.025Z,9.00
2019-02-20T14:26:03.158Z,6.53
2019-02-20T14:28:31.272Z,9.43
2019-02-20T14:30:59.397Z,7.30
2019-02-20T14:33:27.505Z,7.70
2019-02-20T14:35:55.638Z,10.70
2019-02-20T14:38:23.773Z,9.23
2019-02-20T14:40:52.017Z,6.43
2019-02-20T14:43:20.085Z,7.60
2019-02-20T14:45:48.172Z,7.20
2019-02-20T14:48:16.286Z,7.80
2019-02-20T14:50:44.376Z,7.50
2019-02-20T14:53:12.476Z,6.73
2019-02-20T14:55:40.547Z,8.30
2019-02-20T14:58:08.649Z,10.37
2019-02-20T15:00:36.807Z,8.37
2019-02-20T15:03:04.911Z,7.13
2019-02-20T15:05:33.052Z,8.03
2019-02-20T15:08:02.172Z,7.97
2019-02-20T15:10:30.408Z,7.70
2019-02-20T15:12:58.504Z,9.57
2019-02-20T15:15:26.563Z,8.03
2019-02-20T15:17:54.957Z,5.90
2019-02-20T15:20:23.124Z,6.10
2019-02-20T15:22:52.070Z,5.83
2019-02-20T15:25:20.146Z,8.63
2019-02-20T15:27:48.262Z,8.03
2019-02-20T15:30:16.565Z,9.23
2019-02-20T15:32:44.668Z,7.07
2019-02-20T15:35:13.087Z,6.80
2019-02-20T15:37:41.212Z,7.27
2019-02-20T15:40:09.424Z,6.73
2019-02-20T15:42:37.523Z,7.27
2019-02-20T15:45:09.503Z,6.73
2019-02-20T15:47:37.635Z,7.90
2019-02-20T15:50:07.556Z,6.40
2019-02-20T15:52:39.799Z,7.87
2019-02-20T15:55:08.824Z,8.77
2019-02-20T15:57:38.396Z,6.70
2019-02-20T16:00:08.225Z,6.97
2019-02-20T16:02:36.308Z,6.97
2019-02-20T16:05:05.475Z,7.43
2019-02-20T16:07:33.944Z,8.73
2019-02-20T16:10:02.093Z,5.57
2019-02-20T16:12:30.219Z,5.27
2019-02-20T16:14:58.356Z,8.67
2019-02-20T16:17:26.451Z,5.70
2019-02-20T16:19:54.547Z,6.73
2019-02-20T16:22:22.711Z,6.87
2019-02-20T16:24:51.200Z,6.07
2019-02-20T16:27:19.319Z,6.33
2019-02-20T16:29:47.448Z,6.40
2019-02-20T16:32:15.591Z,5.93
2019-02-20T16:34:43.734Z,7.30
2019-02-20T16:37:11.828Z,8.73
2019-02-20T16:39:39.899Z,6.17
2019-02-20T16:42:08.310Z,7.53
2019-02-20T16:44:36.489Z,6.13
2019-02-20T16:47:04.974Z,8.70
2019-02-20T16:49:33.064Z,8.80
2019-02-20T16:52:12.772Z,6.53
2019-02-20T16:54:39.486Z,8.03
2019-02-20T16:57:09.560Z,7.10
2019-02-20T16:59:39.261Z,7.30
2019-02-20T17:02:07.420Z,5.33
2019-02-20T17:04:35.557Z,7.17
2019-02-20T17:07:03.653Z,6.93
2019-02-20T17:09:31.755Z,9.67
2019-02-20T17:12:01.410Z,9.57
2019-02-20T17:14:29.668Z,6.40
2019-02-20T17:16:57.797Z,7.43
2019-02-20T17:19:26.438Z,7.47
2019-02-20T17:21:56.177Z,7.07
2019-02-20T17:24:24.292Z,7.33
2019-02-20T17:26:52.364Z,8.77
2019-02-20T17:29:20.974Z,7.80
2019-02-20T17:31:49.123Z,8.93
2019-02-20T17:34:17.264Z,10.40
2019-02-20T17:36:45.346Z,8.23
2019-02-20T17:39:13.528Z,8.13
2019-02-20T17:41:41.603Z,7.43
2019-02-20T17:44:09.716Z,7.83
2019-02-20T17:46:38.173Z,8.30
2019-02-20T17:49:06.271Z,9.83
2019-02-20T17:51:34.372Z,8.53
2019-02-20T17:54:02.465Z,6.97
2019-02-20T17:56:30.555Z,6.37
2019-02-20T17:58:58.777Z,8.40
2019-02-20T18:01:26.856Z,8.87
2019-02-20T18:03:54.996Z,8.97
2019-02-20T18:06:23.075Z,9.50
2019-02-20T18:08:51.200Z,8.67
2019-02-20T18:11:19.311Z,8.37
2019-02-20T18:13:47.447Z,11.57
2019-02-20T18:16:15.506Z,9.20
2019-02-20T18:18:43.626Z,9.67
2019-02-20T18:21:11.698Z,8.83
2019-02-20T18:23:39.874Z,10.20
2019-02-20T18:26:07.968Z,10.30
2019-02-20T18:28:36.103Z,8.87
2019-02-20T18:31:04.227Z,13.30
2019-02-20T18:33:32.304Z,10.20
2019-02-20T18:36:00.436Z,12.53
2019-02-20T18:38:28.520Z,7.47
2019-02-20T18:40:56.644Z,11.27
2019-02-20T18:43:24.793Z,14.23
2019-02-20T18:45:52.928Z,10.27
2019-02-20T18:50:29.230Z,9.77
2019-02-20T18:52:57.326Z,100.77
2019-02-20T18:55:25.407Z,80.53
2019-02-20T18:57:53.479Z,52.87
2019-02-20T19:00:21.572Z,52.57
2019-02-20T19:02:49.725Z,48.67
2019-02-20T19:05:18.931Z,30.50
2019-02-20T19:07:47.277Z,14.43
2019-02-20T19:10:30.420Z,13.73
2019-02-20T19:13:02.764Z,18.90
2019-02-20T19:15:35.413Z,8.83
2019-02-20T19:18:08.065Z,11.27
2019-02-20T19:20:41.499Z,25.47
2019-02-20T19:23:13.886Z,24.47
2019-02-20T19:25:46.478Z,30.97
2019-02-20T19:28:19.078Z,27.50
2019-02-20T19:31:00.955Z,18.40
2019-02-20T19:33:47.069Z,40.50
2019-02-20T19:36:22.963Z,39.83
2019-02-20T19:39:09.185Z,17.93
2019-02-20T19:41:38.879Z,18.60
2019-02-20T19:44:11.516Z,15.33
2019-02-20T19:46:41.184Z,15.77
2019-02-20T19:49:25.908Z,14.80
2019-02-20T19:52:04.588Z,17.00
2019-02-20T19:54:36.938Z,20.57
2019-02-20T19:57:15.620Z,18.60
2019-02-20T19:59:48.384Z,27.53
2019-02-20T20:02:34.471Z,18.00
2019-02-20T20:05:22.457Z,19.77
2019-02-20T20:07:51.827Z,16.70
2019-02-20T20:10:21.486Z,16.57
2019-02-20T20:12:51.190Z,15.40
2019-02-20T20:15:23.947Z,16.00
2019-02-20T20:18:10.336Z,13.80
2019-02-20T20:20:42.913Z,20.63
2019-02-20T20:23:12.614Z,16.73
2019-02-20T20:25:51.421Z,16.37
2019-02-20T20:28:21.099Z,13.73
2019-02-20T20:30:50.737Z,12.33
2019-02-20T20:33:38.839Z,17.73
2019-02-20T20:36:08.464Z,13.87
2019-02-20T20:38:53.327Z,13.63
2019-02-20T20:41:28.878Z,11.40
2019-02-20T20:44:10.748Z,11.20
2019-02-20T20:46:59.270Z,14.70
2019-02-20T20:49:31.571Z,17.27
2019-02-20T20:52:03.839Z,15.10
2019-02-20T20:54:51.735Z,20.57
2019-02-20T20:57:21.389Z,25.20
2019-02-20T20:59:51.027Z,23.03
2019-02-20T21:02:23.299Z,22.27
2019-02-20T21:05:09.584Z,22.33
2019-02-20T21:07:39.227Z,18.47
2019-02-20T21:10:08.889Z,13.97
2019-02-20T21:12:38.501Z,13.23
2019-02-20T21:15:13.823Z,21.77
2019-02-20T21:17:43.466Z,117.30
2019-02-20T21:20:22.008Z,103.27
2019-02-20T21:22:51.696Z,53.70
2019-02-20T21:25:21.421Z,53.63
2019-02-20T21:28:00.030Z,41.13
2019-02-20T21:30:29.655Z,27.27
2019-02-20T21:33:02.192Z,12.83
2019-02-20T21:35:37.772Z,9.87
2019-02-20T21:38:07.386Z,11.73
2019-02-20T21:40:53.687Z,14.33
2019-02-20T21:43:38.217Z,13.10
2019-02-20T21:46:20.100Z,16.20
2019-02-20T21:49:08.120Z,11.90
2019-02-20T21:51:43.620Z,15.60
2019-02-20T21:54:19.314Z,23.30
2019-02-20T21:56:58.096Z,16.90
2019-02-20T21:59:38.822Z,11.47
2019-02-20T22:02:22.219Z,18.00
2019-02-20T22:04:54.126Z,17.23
2019-02-20T22:07:26.693Z,12.70
2019-02-20T22:09:58.421Z,12.53
2019-02-20T22:12:50.865Z,13.77
2019-02-20T22:15:30.593Z,19.93
2019-02-20T22:18:17.199Z,11.80
2019-02-20T22:21:15.796Z,12.73
2019-02-20T22:24:10.828Z,10.27
2019-02-20T22:26:40.490Z,12.70
2019-02-20T22:29:17.860Z,13.33
2019-02-20T22:31:47.513Z,17.73
2019-02-20T22:34:17.135Z,13.23
2019-02-20T22:36:58.835Z,15.63
2019-02-20T22:39:37.494Z,15.20
2019-02-20T22:42:16.058Z,17.60
2019-02-20T22:45:02.067Z,13.13
2019-02-20T22:47:43.632Z,18.30
2019-02-20T22:50:31.579Z,12.53
2019-02-20T22:53:01.207Z,12.07
2019-02-20T22:55:36.894Z,11.13
2019-02-20T22:58:06.543Z,14.23
2019-02-20T23:00:52.904Z,15.43
2019-02-20T23:03:22.524Z,14.13
2019-02-20T23:05:55.060Z,11.73
2019-02-20T23:08:24.704Z,15.40
2019-02-20T23:11:00.053Z,15.37
2019-02-20T23:13:29.670Z,15.27
2019-02-20T23:15:57.742Z,15.90
2019-02-20T23:18:25.910Z,17.17
2019-02-20T23:20:53.996Z,15.27
2019-02-20T23:23:22.105Z,13.53
2019-02-20T23:25:50.177Z,13.27
2019-02-20T23:28:18.304Z,15.33
2019-02-20T23:30:46.376Z,13.20
2019-02-20T23:33:14.451Z,13.83
2019-02-20T23:35:42.543Z,18.53
2019-02-20T23:38:10.632Z,16.97
2019-02-20T23:40:38.716Z,18.83
2019-02-20T23:43:06.810Z,15.47
2019-02-20T23:45:34.871Z,11.97
2019-02-20T23:48:02.962Z,13.27
2019-02-20T23:50:31.069Z,12.83
2019-02-20T23:52:59.151Z,13.50
2019-02-20T23:55:27.242Z,14.43
2019-02-20T23:57:55.329Z,14.93
